createdAt,value
2023-02-23T00:01:19.579Z,19.20
2023-02-23T00:04:48.155Z,17.00
2023-02-23T00:08:16.043Z,20.20
2023-02-23T00:11:43.470Z,20.10
2023-02-23T00:15:13.266Z,20.80
2023-02-23T00:18:50.339Z,16.20
2023-02-23T00:22:17.938Z,19.20
2023-02-23T00:25:46.403Z,19.40
2023-02-23T00:29:17.545Z,19.70
2023-02-23T00:32:44.969Z,18.30
2023-02-23T00:36:14.607Z,18.50
2023-02-23T00:43:07.165Z,16.90
2023-02-23T00:46:34.304Z,18.70
2023-02-23T00:50:01.529Z,16.20
2023-02-23T00:53:29.012Z,18.90
2023-02-23T00:56:56.328Z,17.20
2023-02-23T01:00:25.657Z,19.70
2023-02-23T01:03:54.529Z,18.10
2023-02-23T01:07:25.642Z,18.70
2023-02-23T01:10:53.928Z,16.50
2023-02-23T01:14:22.114Z,19.00
2023-02-23T01:17:49.472Z,17.80
2023-02-23T01:21:21.448Z,17.10
2023-02-23T01:24:48.657Z,19.60
2023-02-23T01:28:15.815Z,19.40
2023-02-23T01:31:45.883Z,18.90
2023-02-23T01:35:16.460Z,17.20
2023-02-23T01:38:43.977Z,17.20
2023-02-23T01:42:15.035Z,19.60
2023-02-23T01:45:43.118Z,20.00
2023-02-23T01:49:15.495Z,19.70
2023-02-23T01:52:43.619Z,21.20
2023-02-23T01:56:16.616Z,18.60
2023-02-23T01:59:46.602Z,19.30
2023-02-23T02:03:20.202Z,21.60
2023-02-23T02:06:53.441Z,18.40
2023-02-23T02:10:38.707Z,19.40
2023-02-23T02:14:13.470Z,21.60
2023-02-23T02:17:49.778Z,19.70
2023-02-23T02:21:44.776Z,20.40
2023-02-23T02:25:43.333Z,20.50
2023-02-23T02:29:42.633Z,20.30
2023-02-23T02:33:26.762Z,20.20
2023-02-23T02:37:21.288Z,19.60
2023-02-23T02:40:55.157Z,20.90
2023-02-23T02:44:28.926Z,20.90
2023-02-23T02:48:01.148Z,22.40
2023-02-23T02:51:35.207Z,19.80
2023-02-23T02:55:12.282Z,20.40
2023-02-23T02:58:43.552Z,21.50
2023-02-23T03:02:36.052Z,23.00
2023-02-23T03:06:21.471Z,21.50
2023-02-23T03:10:13.246Z,21.70
2023-02-23T03:14:07.177Z,22.50
2023-02-23T03:17:58.333Z,20.50
2023-02-23T03:21:48.132Z,20.70
2023-02-23T03:25:37.960Z,23.30
2023-02-23T03:29:31.707Z,16.80
2023-02-23T03:33:20.372Z,20.30
2023-02-23T03:37:11.271Z,21.10
2023-02-23T03:41:00.813Z,22.70
2023-02-23T03:48:34.565Z,23.00
2023-02-23T03:52:24.914Z,22.40
2023-02-23T03:56:15.945Z,22.10
2023-02-23T04:00:05.547Z,23.00
2023-02-23T04:04:02.106Z,22.20
2023-02-23T04:07:47.831Z,20.50
2023-02-23T04:11:38.648Z,22.80
2023-02-23T04:15:12.767Z,21.60
2023-02-23T04:18:42.636Z,19.00
2023-02-23T04:22:09.864Z,22.70
2023-02-23T04:25:37.034Z,22.80
2023-02-23T04:29:04.183Z,21.70
2023-02-23T04:32:31.836Z,22.30
2023-02-23T04:35:59.169Z,22.00
2023-02-23T04:39:26.450Z,21.80
2023-02-23T04:42:53.927Z,19.90
2023-02-23T04:46:21.113Z,22.70
2023-02-23T04:49:48.742Z,21.60
2023-02-23T04:53:15.941Z,23.40
2023-02-23T04:56:43.249Z,22.10
2023-02-23T05:00:13.252Z,24.10
2023-02-23T05:03:40.349Z,22.90
2023-02-23T05:07:07.552Z,21.60
2023-02-23T05:10:35.085Z,24.20
2023-02-23T05:14:02.473Z,26.10
2023-02-23T05:17:29.878Z,24.20
2023-02-23T05:21:07.801Z,24.50
2023-02-23T05:24:35.516Z,26.00
2023-02-23T05:28:02.768Z,25.20
2023-02-23T05:31:30.455Z,23.70
2023-02-23T05:34:57.766Z,26.20
2023-02-23T05:38:24.978Z,25.80
2023-02-23T05:41:52.634Z,24.70
2023-02-23T05:45:20.002Z,25.30
2023-02-23T05:48:47.265Z,23.40
2023-02-23T05:52:14.344Z,26.90
2023-02-23T05:55:41.486Z,25.50
2023-02-23T05:59:08.791Z,25.90
2023-02-23T06:02:36.580Z,26.50
2023-02-23T06:06:03.789Z,26.30
2023-02-23T06:09:30.939Z,30.50
2023-02-23T06:12:58.340Z,27.60
2023-02-23T06:16:25.414Z,26.20
2023-02-23T06:19:52.710Z,26.50
2023-02-23T06:23:20.211Z,21.30
2023-02-23T06:26:48.026Z,29.30
2023-02-23T06:30:16.836Z,27.80
2023-02-23T06:33:44.022Z,25.10
2023-02-23T06:37:12.233Z,27.30
2023-02-23T06:40:41.576Z,27.30
2023-02-23T06:44:08.968Z,25.60
2023-02-23T06:47:36.052Z,26.60
2023-02-23T06:51:03.446Z,25.60
2023-02-23T06:54:30.595Z,26.10
2023-02-23T06:57:58.429Z,26.30
2023-02-23T07:01:25.523Z,27.50
2023-02-23T07:04:52.740Z,26.40
2023-02-23T07:08:20.541Z,26.70
2023-02-23T07:11:47.683Z,27.30
2023-02-23T07:15:18.656Z,25.30
2023-02-23T07:18:45.896Z,26.30
2023-02-23T07:22:13.226Z,24.80
2023-02-23T07:25:40.680Z,24.50
2023-02-23T07:29:08.263Z,25.30
2023-02-23T07:32:35.814Z,26.70
2023-02-23T07:36:03.402Z,26.50
2023-02-23T07:39:31.174Z,27.10
2023-02-23T07:42:58.620Z,26.30
2023-02-23T07:46:26.090Z,26.20
2023-02-23T07:49:53.486Z,26.40
2023-02-23T07:53:21.098Z,27.30
2023-02-23T07:56:48.331Z,27.10
2023-02-23T08:00:17.723Z,26.80
2023-02-23T08:03:49.895Z,28.70
2023-02-23T08:07:17.290Z,27.60
2023-02-23T08:10:44.667Z,26.40
2023-02-23T08:14:13.145Z,26.70
2023-02-23T08:17:41.396Z,26.50
2023-02-23T08:21:09.109Z,26.50
2023-02-23T08:24:37.063Z,25.70
2023-02-23T08:28:06.973Z,25.10
2023-02-23T08:31:34.412Z,26.80
2023-02-23T08:35:02.846Z,26.20
2023-02-23T08:38:30.369Z,24.70
2023-02-23T08:41:57.533Z,26.10
2023-02-23T08:45:24.626Z,26.00
2023-02-23T08:48:52.575Z,28.50
2023-02-23T08:52:19.931Z,26.70
2023-02-23T08:55:48.094Z,28.10
2023-02-23T08:59:16.787Z,28.00
2023-02-23T09:02:45.448Z,27.00
2023-02-23T09:06:16.496Z,28.90
2023-02-23T09:09:44.216Z,27.10
2023-02-23T09:13:11.473Z,25.40
2023-02-23T09:16:39.038Z,25.80
2023-02-23T09:20:07.210Z,26.00
2023-02-23T09:23:34.434Z,26.50
2023-02-23T09:27:01.643Z,25.60
2023-02-23T09:30:30.333Z,26.10
2023-02-23T09:33:58.211Z,24.70
2023-02-23T09:37:25.768Z,24.30
2023-02-23T09:40:56.051Z,21.60
2023-02-23T09:44:34.149Z,25.40
2023-02-23T09:48:14.062Z,24.50
2023-02-23T09:51:46.598Z,35.40
2023-02-23T09:55:16.446Z,41.70
2023-02-23T09:58:43.954Z,27.00
2023-02-23T10:02:24.227Z,26.70
2023-02-23T10:05:57.084Z,24.90
2023-02-23T10:09:37.437Z,25.90
2023-02-23T10:13:14.704Z,24.40
2023-02-23T10:16:59.724Z,26.70
2023-02-23T10:20:33.316Z,38.70
2023-02-23T10:24:05.103Z,35.20
2023-02-23T10:27:42.049Z,40.50
2023-02-23T10:31:26.430Z,31.10
2023-02-23T10:34:57.055Z,32.50
2023-02-23T10:38:24.287Z,36.10
2023-02-23T10:41:52.180Z,38.20
2023-02-23T10:45:24.550Z,37.90
2023-02-23T10:48:55.788Z,33.00
2023-02-23T10:52:26.310Z,29.90
2023-02-23T10:56:04.591Z,28.30
2023-02-23T10:59:32.008Z,25.00
2023-02-23T11:03:00.706Z,36.50
2023-02-23T11:06:33.455Z,34.00
2023-02-23T11:10:01.651Z,25.90
2023-02-23T11:13:30.854Z,24.20
2023-02-23T11:16:59.037Z,25.70
2023-02-23T11:20:31.799Z,24.40
2023-02-23T11:24:02.938Z,27.10
2023-02-23T11:27:30.519Z,26.20
2023-02-23T11:30:58.015Z,26.50
2023-02-23T11:34:32.175Z,27.60
2023-02-23T11:38:00.251Z,26.60
2023-02-23T11:41:27.607Z,26.60
2023-02-23T11:45:06.205Z,27.30
2023-02-23T11:48:39.400Z,26.90
2023-02-23T11:52:12.890Z,25.80
2023-02-23T11:55:41.012Z,25.80
2023-02-23T11:59:17.759Z,25.30
2023-02-23T12:02:55.374Z,26.40
2023-02-23T12:06:35.330Z,25.00
2023-02-23T12:10:08.698Z,28.30
2023-02-23T12:13:40.180Z,24.50
2023-02-23T12:17:15.495Z,26.10
2023-02-23T12:20:48.639Z,26.40
2023-02-23T12:24:26.671Z,25.90
2023-02-23T12:28:07.631Z,27.10
2023-02-23T12:31:48.922Z,24.90
2023-02-23T12:35:20.254Z,25.60
2023-02-23T12:38:55.743Z,23.60
2023-02-23T12:42:27.460Z,24.20
2023-02-23T12:46:00.957Z,24.60
2023-02-23T12:49:36.226Z,24.00
2023-02-23T12:53:23.920Z,24.20
2023-02-23T12:57:04.683Z,24.50
2023-02-23T13:00:47.409Z,25.50
2023-02-23T13:04:54.566Z,25.40
2023-02-23T13:08:32.916Z,26.20
2023-02-23T13:12:11.821Z,24.90
2023-02-23T13:15:53.979Z,22.90
2023-02-23T13:19:31.225Z,24.70
2023-02-23T13:23:10.435Z,24.60
2023-02-23T13:26:45.497Z,24.90
2023-02-23T13:30:16.460Z,24.50
2023-02-23T13:33:44.613Z,27.10
2023-02-23T13:37:16.474Z,25.80
2023-02-23T13:40:52.213Z,25.30
2023-02-23T13:44:28.602Z,24.40
2023-02-23T13:48:03.893Z,25.60
2023-02-23T13:51:45.197Z,28.30
2023-02-23T13:55:48.286Z,25.20
2023-02-23T13:59:22.411Z,29.20
2023-02-23T14:02:50.158Z,24.90
2023-02-23T14:06:21.738Z,25.10
2023-02-23T14:09:55.647Z,35.40
2023-02-23T14:13:32.213Z,41.80
2023-02-23T14:17:30.717Z,29.80
2023-02-23T14:21:03.405Z,29.00
2023-02-23T14:24:31.072Z,27.10
2023-02-23T14:28:02.673Z,27.90
2023-02-23T14:31:36.113Z,26.20
2023-02-23T14:35:04.925Z,27.40
2023-02-23T14:38:47.918Z,27.00
2023-02-23T14:42:24.942Z,28.20
2023-02-23T14:45:57.569Z,27.20
2023-02-23T14:49:27.892Z,26.00
2023-02-23T14:52:57.212Z,25.40
2023-02-23T14:56:35.505Z,24.30
2023-02-23T15:00:21.290Z,25.30
2023-02-23T15:04:07.949Z,26.10
2023-02-23T15:07:39.367Z,25.60
2023-02-23T15:11:11.958Z,30.60
2023-02-23T15:14:40.150Z,40.90
2023-02-23T15:18:07.469Z,29.30
2023-02-23T15:21:36.212Z,79.00
2023-02-23T15:25:10.884Z,33.40
2023-02-23T15:28:45.702Z,30.20
2023-02-23T15:32:22.032Z,28.10
2023-02-23T15:39:23.338Z,26.90
2023-02-23T15:42:53.995Z,28.00
2023-02-23T15:46:27.743Z,28.00
2023-02-23T15:50:06.250Z,28.90
2023-02-23T15:53:37.345Z,31.90
2023-02-23T15:57:18.724Z,30.30
2023-02-23T16:00:51.493Z,30.00
2023-02-23T16:04:21.879Z,33.80
2023-02-23T16:07:49.087Z,36.80
2023-02-23T16:11:19.480Z,36.50
2023-02-23T16:14:51.177Z,35.30
2023-02-23T16:18:23.164Z,39.70
2023-02-23T16:21:55.174Z,42.80
2023-02-23T16:25:25.627Z,35.90
2023-02-23T16:28:58.207Z,34.60
2023-02-23T16:32:25.732Z,37.00
2023-02-23T16:35:56.058Z,39.80
2023-02-23T16:39:25.505Z,39.00
2023-02-23T16:42:54.037Z,42.10
2023-02-23T16:46:24.625Z,41.40
2023-02-23T16:49:52.436Z,40.30
2023-02-23T16:53:20.023Z,43.60
2023-02-23T16:56:47.814Z,43.90
2023-02-23T17:00:23.888Z,45.60
2023-02-23T17:03:53.252Z,45.70
2023-02-23T17:07:23.838Z,45.90
2023-02-23T17:10:54.282Z,48.80
2023-02-23T17:14:32.064Z,48.20
2023-02-23T17:17:59.953Z,46.30
2023-02-23T17:21:27.115Z,45.70
2023-02-23T17:24:54.312Z,47.10
2023-02-23T17:28:22.145Z,45.80
2023-02-23T17:31:49.921Z,48.40
2023-02-23T17:35:17.318Z,48.10
2023-02-23T17:38:45.321Z,48.90
2023-02-23T17:42:12.592Z,49.80
2023-02-23T17:45:40.049Z,48.90
2023-02-23T17:49:07.731Z,48.90
2023-02-23T17:52:34.990Z,47.70
2023-02-23T17:56:02.800Z,46.00
2023-02-23T17:59:30.033Z,45.20
2023-02-23T18:02:57.499Z,41.90
2023-02-23T18:06:25.066Z,41.80
2023-02-23T18:09:52.616Z,43.70
2023-02-23T18:13:20.507Z,42.60
2023-02-23T18:16:47.737Z,46.70
2023-02-23T18:20:16.258Z,46.20
2023-02-23T18:23:43.584Z,45.60
2023-02-23T18:27:12.719Z,45.40
2023-02-23T18:30:40.986Z,42.70
2023-02-23T18:34:09.034Z,44.90
2023-02-23T18:37:36.807Z,44.50
2023-02-23T18:41:04.227Z,43.70
2023-02-23T18:44:32.947Z,44.00
2023-02-23T18:48:02.387Z,44.50
2023-02-23T18:51:29.909Z,44.30
2023-02-23T18:54:57.296Z,44.50
2023-02-23T18:58:24.412Z,46.30
2023-02-23T19:01:52.824Z,44.90
2023-02-23T19:05:22.091Z,53.60
2023-02-23T19:08:54.298Z,61.80
2023-02-23T19:12:21.666Z,91.60
2023-02-23T19:15:53.688Z,70.90
2023-02-23T19:19:21.661Z,56.60
2023-02-23T19:22:49.832Z,63.60
2023-02-23T19:26:18.801Z,65.70
2023-02-23T19:29:46.739Z,72.90
2023-02-23T19:33:14.312Z,71.40
2023-02-23T19:36:41.515Z,76.30
2023-02-23T19:40:11.112Z,70.30
2023-02-23T19:43:38.954Z,65.90
2023-02-23T19:47:06.187Z,65.90
2023-02-23T19:50:33.514Z,68.90
2023-02-23T19:54:01.334Z,62.80
2023-02-23T19:57:28.830Z,65.40
2023-02-23T20:00:57.501Z,63.30
2023-02-23T20:04:25.026Z,65.50
2023-02-23T20:07:52.754Z,65.00
2023-02-23T20:11:20.346Z,67.40
2023-02-23T20:14:49.682Z,69.20
2023-02-23T20:18:16.745Z,65.90
2023-02-23T20:21:44.140Z,70.60
2023-02-23T20:25:15.708Z,71.90
2023-02-23T20:28:44.852Z,75.80
2023-02-23T20:32:12.386Z,69.80
2023-02-23T20:35:39.770Z,74.70
2023-02-23T20:39:07.168Z,66.80
2023-02-23T20:42:34.508Z,65.10
2023-02-23T20:46:02.885Z,59.60
2023-02-23T20:49:30.757Z,63.40
2023-02-23T20:53:02.556Z,69.30
2023-02-23T20:56:32.900Z,67.30
2023-02-23T21:00:01.692Z,71.90
2023-02-23T21:03:29.164Z,77.50
2023-02-23T21:06:56.257Z,77.50
2023-02-23T21:10:23.466Z,83.30
2023-02-23T21:13:50.860Z,86.80
2023-02-23T21:17:18.430Z,86.90
2023-02-23T21:20:46.305Z,86.60
2023-02-23T21:24:14.955Z,81.40
2023-02-23T21:27:43.281Z,80.80
2023-02-23T21:31:12.714Z,75.20
2023-02-23T21:34:40.025Z,74.20
2023-02-23T21:38:08.376Z,74.80
2023-02-23T21:41:37.858Z,70.20
2023-02-23T21:45:05.723Z,65.50
2023-02-23T21:48:32.920Z,67.20
2023-02-23T21:52:00.037Z,66.50
2023-02-23T21:55:27.361Z,66.70
2023-02-23T21:58:56.178Z,67.50
2023-02-23T22:02:24.136Z,69.10
2023-02-23T22:05:51.985Z,368.60
2023-02-23T22:09:21.799Z,295.80
2023-02-23T22:12:50.209Z,292.50
2023-02-23T22:16:19.646Z,253.20
2023-02-23T22:23:13.986Z,94.90
2023-02-23T22:26:46.835Z,80.70
2023-02-23T22:30:16.082Z,103.80
2023-02-23T22:33:44.733Z,109.40
2023-02-23T22:37:11.885Z,99.80
2023-02-23T22:40:42.324Z,89.20
2023-02-23T22:44:09.984Z,92.60
2023-02-23T22:47:38.880Z,81.00
2023-02-23T22:51:07.807Z,91.80
2023-02-23T22:54:37.323Z,85.00
2023-02-23T23:01:36.401Z,65.60
2023-02-23T23:05:03.779Z,74.90
2023-02-23T23:08:31.486Z,79.50
2023-02-23T23:11:58.772Z,81.50
2023-02-23T23:15:25.950Z,123.10
2023-02-23T23:18:55.664Z,97.60
2023-02-23T23:22:25.354Z,83.20
2023-02-23T23:29:19.617Z,70.10
2023-02-23T23:32:47.160Z,70.90
2023-02-23T23:36:25.705Z,62.30
2023-02-23T23:39:59.382Z,59.40
2023-02-23T23:43:26.772Z,50.90
2023-02-23T23:46:54.061Z,54.60
2023-02-23T23:50:26.939Z,57.40
2023-02-23T23:53:55.067Z,48.50
2023-02-23T23:57:22.454Z,42.20
